Time;durP1;ratioP1;P1;durP2;ratioP2;P2;SDS_P1;SDS_P2;PMS_P1;PMS_P2;Temp;Humidity;BMP_temperature;BMP_pressure;BME280_temperature;BME280_humidity;BME280_pressure;Samples;Min_cycle;Max_cycle;Signal;HPM_P1;HPM_P2
2023/01/13 00:01:22;;;;;;;4.40;0.60;;;10.40;99.90;;;;;;5010969;28;20369;-50
2023/01/13 00:03:48;;;;;;;5.10;0.50;;;10.20;99.90;;;;;;5010300;28;20415;-50
2023/01/13 00:06:19;;;;;;;4.60;0.60;;;10.20;99.90;;;;;;5010728;28;20432;-51
2023/01/13 00:08:49;;;;;;;5.60;0.55;;;10.10;99.90;;;;;;5010406;28;20443;-51
2023/01/13 00:11:15;;;;;;;4.85;0.60;;;10.10;99.90;;;;;;5010564;28;20484;-51
2023/01/13 00:13:41;;;;;;;4.60;0.60;;;10.10;99.90;;;;;;5009403;28;20411;-52
2023/01/13 00:16:10;;;;;;;4.70;0.50;;;10.10;99.90;;;;;;5010086;28;20392;-51
2023/01/13 00:18:36;;;;;;;6.10;0.80;;;10.20;99.90;;;;;;5009811;28;20408;-50
2023/01/13 00:21:07;;;;;;;5.30;0.60;;;10.10;99.90;;;;;;4990768;28;20521;-52
2023/01/13 00:23:34;;;;;;;4.88;0.60;;;10.10;99.90;;;;;;4990398;28;20421;-51
2023/01/13 00:26:06;;;;;;;3.97;0.35;;;10.00;99.90;;;;;;4990427;28;20468;-51
2023/01/13 00:28:32;;;;;;;4.50;0.70;;;10.00;99.90;;;;;;4989517;28;20394;-51
2023/01/13 00:31:07;;;;;;;4.43;0.60;;;9.90;99.90;;;;;;4989830;28;20482;-51
2023/01/13 00:33:34;;;;;;;4.90;0.70;;;10.00;99.90;;;;;;4990920;28;20493;-51
2023/01/13 00:36:01;;;;;;;4.13;0.40;;;10.10;99.90;;;;;;4990198;28;20379;-51
2023/01/13 00:38:28;;;;;;;5.40;0.60;;;10.10;99.90;;;;;;4990890;28;20382;-51
2023/01/13 00:41:14;;;;;;;4.05;0.40;;;10.10;99.90;;;;;;4990273;28;20390;-51
2023/01/13 00:43:40;;;;;;;4.10;0.50;;;10.10;99.90;;;;;;4990913;28;20391;-56
2023/01/13 00:46:08;;;;;;;5.80;0.50;;;10.10;99.90;;;;;;4990181;28;20382;-51
2023/01/13 00:48:34;;;;;;;4.18;0.55;;;10.10;99.90;;;;;;4990163;28;20421;-51
2023/01/13 00:51:02;;;;;;;3.90;0.40;;;10.10;99.90;;;;;;4989647;28;21186;-51
2023/01/13 00:53:32;;;;;;;4.90;0.68;;;10.20;99.90;;;;;;4988685;28;20969;-51
2023/01/13 00:56:09;;;;;;;6.20;0.50;;;10.20;99.90;;;;;;4989906;28;20452;-51
2023/01/13 00:58:35;;;;;;;4.88;0.40;;;10.30;99.90;;;;;;4989827;28;20389;-51
2023/01/13 01:01:06;;;;;;;4.07;0.40;;;10.30;99.90;;;;;;4989405;28;20386;-51
2023/01/13 01:03:33;;;;;;;6.00;0.50;;;10.30;99.90;;;;;;4990513;28;20425;-51
2023/01/13 01:06:13;;;;;;;7.40;0.50;;;10.40;99.90;;;;;;4990122;28;20870;-51
2023/01/13 01:08:39;;;;;;;4.63;0.50;;;10.20;99.90;;;;;;4990549;28;20399;-52
2023/01/13 01:11:17;;;;;;;4.40;0.50;;;11.30;99.90;;;;;;4989540;28;20394;-51
2023/01/13 01:13:43;;;;;;;4.80;0.63;;;10.30;99.90;;;;;;4989574;28;20837;-52
2023/01/13 01:16:17;;;;;;;5.10;0.60;;;10.40;99.90;;;;;;4988992;28;20383;-52
2023/01/13 01:18:45;;;;;;;4.45;0.50;;;10.40;99.90;;;;;;4989540;28;20387;-56
2023/01/13 01:21:11;;;;;;;4.60;0.50;;;10.50;99.90;;;;;;4989945;28;20390;-51
2023/01/13 01:23:38;;;;;;;5.15;0.50;;;10.30;99.90;;;;;;4989868;28;20429;-52
2023/01/13 01:26:09;;;;;;;4.38;0.60;;;10.50;97.40;;;;;;4989277;28;20395;-51
2023/01/13 01:28:35;;;;;;;5.00;0.70;;;10.50;97.70;;;;;;4989820;28;20745;-52
2023/01/13 01:31:06;;;;;;;5.33;0.67;;;10.50;97.80;;;;;;4989391;28;20832;-51
2023/01/13 01:33:31;;;;;;;5.50;0.50;;;10.50;95.60;;;;;;4988251;28;20445;-52
2023/01/13 01:35:59;;;;;;;4.10;0.50;;;10.60;95.30;;;;;;4988648;28;20394;-51
2023/01/13 01:38:24;;;;;;;4.80;0.70;;;10.60;95.30;;;;;;4989869;28;20422;-51
2023/01/13 01:40:50;;;;;;;5.45;0.70;;;10.60;94.90;;;;;;4988824;28;20420;-51
2023/01/13 01:46:02;;;;;;;4.00;0.40;;;10.60;95.80;;;;;;4989420;28;20378;-50
2023/01/13 01:48:33;;;;;;;4.45;0.40;;;10.50;97.50;;;;;;4989505;28;20728;-52
2023/01/13 01:51:00;;;;;;;4.55;0.57;;;10.60;98.40;;;;;;4988288;28;20914;-51
2023/01/13 01:53:28;;;;;;;4.70;0.60;;;10.70;99.10;;;;;;4989139;28;20759;-51
2023/01/13 01:55:56;;;;;;;4.05;0.43;;;10.70;95.50;;;;;;5005864;28;20486;-51
2023/01/13 01:58:48;;;;;;;4.20;0.40;;;10.60;94.10;;;;;;5006677;28;20466;-51
2023/01/13 02:01:14;;;;;;;5.70;0.40;;;10.60;98.50;;;;;;5008825;28;20381;-51
2023/01/13 02:03:46;;;;;;;5.70;0.55;;;10.60;96.60;;;;;;5008397;28;20395;-51
2023/01/13 02:06:12;;;;;;;5.72;0.55;;;10.50;93.10;;;;;;5008925;28;20857;-50
2023/01/13 02:08:39;;;;;;;4.30;0.47;;;10.50;97.30;;;;;;5009131;28;20389;-51
2023/01/13 02:12:28;;;;;;;5.03;0.50;;;10.50;99.90;;;;;;5006164;28;20491;-51
2023/01/13 02:13:51;;;;;;;3.97;0.40;;;10.40;99.90;;;;;;5007229;28;20439;-51
2023/01/13 02:16:22;;;;;;;4.30;0.50;;;10.40;99.90;;;;;;5008470;28;20393;-51
2023/01/13 02:18:54;;;;;;;4.60;0.50;;;10.40;99.90;;;;;;5006636;28;20475;-50
2023/01/13 02:22:01;;;;;;;4.17;0.40;;;10.50;99.90;;;;;;5009190;28;20467;-52
2023/01/13 02:24:54;;;;;;;6.30;0.60;;;10.50;99.90;;;;;;4965612;28;20416;-52
2023/01/13 02:27:51;;;;;;;4.80;0.35;;;10.50;99.90;;;;;;5007924;28;20749;-52
2023/01/13 02:33:39;;;;;;;3.90;0.30;;;10.50;99.90;;;;;;5008392;28;20424;-51
2023/01/13 02:36:12;;;;;;;4.10;0.50;;;10.50;99.90;;;;;;5007816;28;20384;-53
2023/01/13 02:38:59;;;;;;;4.10;0.40;;;10.60;99.90;;;;;;5008708;28;20486;-51
2023/01/13 02:44:23;;;;;;;3.90;0.40;;;10.50;99.90;;;;;;5008349;28;20443;-51
2023/01/13 02:46:55;;;;;;;4.30;0.47;;;10.40;99.90;;;;;;5007464;28;20377;-52
2023/01/13 02:49:36;;;;;;;4.40;0.50;;;10.40;99.90;;;;;;5008518;28;20385;-51
2023/01/13 02:52:20;;;;;;;4.00;0.50;;;10.40;99.90;;;;;;5005614;28;20480;-51
2023/01/13 02:54:51;;;;;;;4.80;0.50;;;10.40;99.90;;;;;;5006940;28;20440;-56
2023/01/13 02:57:19;;;;;;;5.65;0.70;;;10.30;99.90;;;;;;5008046;28;20460;-51
2023/01/13 02:59:45;;;;;;;6.10;0.50;;;10.30;99.90;;;;;;5007407;28;20415;-55
2023/01/13 03:02:17;;;;;;;3.88;0.40;;;10.10;99.90;;;;;;5007931;28;20467;-51
2023/01/13 03:04:50;;;;;;;5.20;0.70;;;10.20;99.90;;;;;;5008708;28;20413;-56
2023/01/13 03:07:52;;;;;;;4.80;0.50;;;10.30;99.90;;;;;;5011928;28;20393;-50
2023/01/13 03:10:26;;;;;;;6.43;0.60;;;10.30;99.90;;;;;;5011749;28;20397;-51
2023/01/13 03:13:01;;;;;;;4.50;0.60;;;10.40;99.90;;;;;;5010823;28;20526;-51
2023/01/13 03:15:46;;;;;;;3.90;0.40;;;10.40;99.90;;;;;;5010647;28;20428;-51
2023/01/13 03:18:31;;;;;;;4.68;0.57;;;10.30;99.90;;;;;;5011774;28;20559;-52
2023/01/13 03:21:13;;;;;;;4.95;0.45;;;10.30;99.90;;;;;;5011422;28;20447;-50
2023/01/13 03:23:55;;;;;;;4.32;0.40;;;10.30;99.90;;;;;;5011342;28;20511;-50
2023/01/13 03:27:03;;;;;;;3.90;0.40;;;10.20;99.90;;;;;;5010156;28;20753;-50
2023/01/13 03:29:29;;;;;;;5.70;0.70;;;10.20;99.90;;;;;;4973994;28;20393;-51
2023/01/13 03:32:25;;;;;;;4.50;0.53;;;10.20;99.90;;;;;;5010994;28;20388;-51
2023/01/13 03:34:55;;;;;;;5.90;0.80;;;10.20;99.90;;;;;;5003979;28;20405;-50
2023/01/13 03:37:28;;;;;;;4.10;0.60;;;10.30;99.90;;;;;;5011236;28;20377;-52
2023/01/13 03:40:13;;;;;;;4.85;0.75;;;10.30;99.90;;;;;;5010703;28;20499;-50
2023/01/13 03:44:20;;;;;;;4.40;0.70;;;10.30;99.90;;;;;;5011390;28;20873;-50
2023/01/13 03:45:30;;;;;;;6.10;0.70;;;10.30;99.90;;;;;;5010759;28;20400;-50
2023/01/13 03:48:02;;;;;;;4.40;0.50;;;10.30;99.90;;;;;;5008717;28;20401;-50
2023/01/13 03:50:32;;;;;;;5.20;0.80;;;10.30;99.90;;;;;;5010612;28;20877;-51
2023/01/13 03:53:05;;;;;;;4.18;0.52;;;10.30;99.90;;;;;;5010410;28;20437;-50
2023/01/13 03:55:35;;;;;;;4.30;0.50;;;10.20;99.90;;;;;;5010862;28;20393;-50
2023/01/13 03:58:27;;;;;;;4.50;0.50;;;10.20;99.90;;;;;;5009767;28;20381;-51
2023/01/13 04:01:21;;;;;;;4.10;0.40;;;10.20;99.90;;;;;;5010203;28;20380;-51
2023/01/13 04:04:02;;;;;;;4.10;0.60;;;10.30;99.90;;;;;;5009651;28;20865;-55
2023/01/13 04:06:40;;;;;;;5.13;0.70;;;10.30;99.90;;;;;;5011007;28;20464;-51
2023/01/13 04:09:19;;;;;;;4.30;0.70;;;10.20;99.90;;;;;;5009852;28;20490;-51
2023/01/13 04:11:52;;;;;;;4.20;0.60;;;10.20;99.90;;;;;;5010303;28;20396;-54
2023/01/13 04:14:19;;;;;;;4.28;0.60;;;10.20;99.90;;;;;;5009678;28;20463;-51
2023/01/13 04:16:47;;;;;;;4.78;0.30;;;10.20;99.90;;;;;;5010211;28;20447;-55
2023/01/13 04:19:13;;;;;;;4.70;0.60;;;10.30;99.90;;;;;;5010642;28;20385;-50
2023/01/13 04:21:38;;;;;;;3.80;0.40;;;10.20;99.90;;;;;;5009885;28;20396;-50
2023/01/13 04:24:04;;;;;;;4.00;0.50;;;10.20;99.90;;;;;;5010154;28;20761;-51
2023/01/13 04:26:30;;;;;;;4.40;0.60;;;10.30;99.90;;;;;;5009216;28;20933;-51
2023/01/13 04:28:55;;;;;;;4.80;0.40;;;11.60;99.90;;;;;;5008953;28;20484;-51
2023/01/13 04:31:21;;;;;;;3.90;0.40;;;10.30;99.90;;;;;;5008860;28;20392;-51
2023/01/13 04:33:46;;;;;;;5.10;0.50;;;11.10;99.90;;;;;;5009191;28;20444;-51
2023/01/13 04:36:12;;;;;;;4.60;0.70;;;10.50;99.90;;;;;;5010288;28;20687;-51
2023/01/13 04:38:38;;;;;;;4.22;0.50;;;10.50;99.90;;;;;;5009455;28;20396;-52
2023/01/13 04:41:03;;;;;;;5.17;0.53;;;10.50;99.90;;;;;;5004313;28;20402;-50
2023/01/13 04:43:29;;;;;;;4.60;0.60;;;10.40;99.90;;;;;;4998828;28;20481;-50
2023/01/13 04:45:55;;;;;;;6.30;0.60;;;10.50;99.90;;;;;;4989732;28;20732;-51
2023/01/13 04:48:20;;;;;;;4.10;0.60;;;10.60;99.90;;;;;;4990786;28;20430;-50
2023/01/13 04:50:46;;;;;;;4.40;0.60;;;10.60;99.90;;;;;;4990162;28;20456;-55
2023/01/13 04:53:11;;;;;;;4.00;0.60;;;10.50;99.90;;;;;;4990412;28;20414;-51
2023/01/13 04:55:37;;;;;;;4.80;0.50;;;10.50;99.90;;;;;;4990288;28;20808;-51
2023/01/13 04:58:08;;;;;;;4.40;0.50;;;10.50;99.90;;;;;;4989508;28;20994;-51
2023/01/13 05:00:35;;;;;;;4.32;0.60;;;10.60;99.90;;;;;;4991484;28;20386;-53
2023/01/13 05:03:00;;;;;;;5.10;0.57;;;10.60;99.90;;;;;;4989864;28;20394;-51
2023/01/13 05:05:27;;;;;;;4.40;0.50;;;10.60;99.90;;;;;;4990093;28;20394;-51
2023/01/13 05:07:53;;;;;;;4.60;0.50;;;10.60;99.90;;;;;;4989598;28;20445;-51
2023/01/13 05:10:18;;;;;;;4.23;0.60;;;10.50;99.90;;;;;;4989872;28;20394;-51
2023/01/13 05:18:13;;;;;;;4.50;0.60;;;10.60;99.90;;;;;;4999146;28;20400;-51
2023/01/13 05:20:39;;;;;;;4.00;0.55;;;10.70;99.90;;;;;;5002409;28;20407;-51
2023/01/13 05:25:49;;;;;;;4.53;0.77;;;10.70;99.90;;;;;;5002570;28;20393;-51
2023/01/13 05:28:15;;;;;;;3.88;0.40;;;10.60;99.90;;;;;;4998623;28;20393;-51
2023/01/13 05:30:44;;;;;;;4.10;0.47;;;10.60;99.90;;;;;;4997632;28;20489;-51
2023/01/13 05:33:11;;;;;;;4.20;0.50;;;10.50;99.90;;;;;;4992772;28;20414;-53
2023/01/13 05:35:39;;;;;;;4.00;0.40;;;10.50;99.90;;;;;;5003180;28;20405;-51
2023/01/13 05:38:04;;;;;;;4.90;0.50;;;10.60;99.90;;;;;;4997214;28;20530;-51
2023/01/13 05:43:19;;;;;;;6.50;0.60;;;10.60;99.90;;;;;;5001105;28;20578;-51
2023/01/13 05:46:00;;;;;;;4.55;0.70;;;10.60;99.90;;;;;;5004938;28;20854;-52
2023/01/13 05:48:32;;;;;;;5.20;0.50;;;10.60;99.90;;;;;;5007412;28;20389;-50
2023/01/13 05:50:59;;;;;;;4.03;0.43;;;10.60;99.90;;;;;;5007000;28;20387;-53
2023/01/13 05:53:25;;;;;;;3.90;0.50;;;10.60;99.90;;;;;;4988816;28;20427;-51
2023/01/13 05:55:51;;;;;;;4.20;0.40;;;10.50;99.90;;;;;;5002903;28;20401;-51
2023/01/13 05:58:18;;;;;;;4.20;0.50;;;10.50;99.90;;;;;;5008658;28;20715;-52
2023/01/13 06:00:44;;;;;;;4.10;0.40;;;10.50;99.90;;;;;;5008880;28;20392;-51
2023/01/13 06:03:11;;;;;;;3.90;0.40;;;10.50;99.90;;;;;;5007845;28;20688;-51
2023/01/13 06:05:37;;;;;;;5.22;0.68;;;10.50;99.90;;;;;;5009136;28;20392;-52
2023/01/13 06:08:04;;;;;;;4.57;0.32;;;10.50;99.90;;;;;;5007247;28;20949;-51
2023/01/13 06:10:30;;;;;;;4.27;0.50;;;10.60;99.90;;;;;;5003757;28;20428;-51
2023/01/13 06:12:56;;;;;;;3.80;0.40;;;10.50;99.90;;;;;;5007097;28;20822;-51
2023/01/13 06:15:22;;;;;;;5.20;0.50;;;10.50;99.90;;;;;;5009055;28;20838;-50
2023/01/13 06:17:48;;;;;;;4.50;0.47;;;10.50;99.90;;;;;;5001409;28;20388;-55
2023/01/13 06:20:15;;;;;;;3.80;0.30;;;10.60;99.90;;;;;;4999002;28;20405;-52
2023/01/13 06:22:49;;;;;;;3.95;0.40;;;10.60;99.90;;;;;;5008292;28;20407;-50
2023/01/13 06:25:25;;;;;;;5.00;0.60;;;10.40;99.90;;;;;;5008593;28;20385;-50
2023/01/13 06:27:52;;;;;;;4.30;0.60;;;10.60;99.90;;;;;;4988455;28;20383;-51
2023/01/13 06:30:18;;;;;;;4.28;0.38;;;10.60;99.90;;;;;;4993606;28;20401;-52
2023/01/13 06:32:47;;;;;;;4.10;0.50;;;10.50;99.90;;;;;;5005756;28;20385;-51
2023/01/13 06:35:18;;;;;;;4.10;0.43;;;10.60;99.90;;;;;;5009200;28;20458;-52
2023/01/13 06:37:46;;;;;;;4.40;0.60;;;10.60;99.90;;;;;;5008290;28;20385;-51
2023/01/13 06:40:13;;;;;;;4.40;0.50;;;10.60;99.90;;;;;;5006888;28;20734;-51
2023/01/13 06:45:25;;;;;;;5.20;0.50;;;10.60;99.90;;;;;;5009631;28;20420;-50
2023/01/13 06:47:53;;;;;;;3.88;0.38;;;10.50;99.90;;;;;;5011416;28;20389;-50
2023/01/13 06:50:19;;;;;;;4.70;0.70;;;10.50;99.90;;;;;;5011989;28;20428;-51
2023/01/13 06:52:44;;;;;;;4.60;0.50;;;10.40;99.90;;;;;;5012130;28;20443;-51
2023/01/13 06:55:10;;;;;;;4.10;0.50;;;10.40;99.90;;;;;;5010453;28;20404;-51
2023/01/13 06:57:53;;;;;;;4.30;0.70;;;12.20;99.90;;;;;;5012066;28;20412;-51
2023/01/13 07:00:19;;;;;;;3.80;0.30;;;9.70;99.90;;;;;;5011943;28;20475;-51
2023/01/13 07:02:45;;;;;;;3.70;0.20;;;10.30;99.90;;;;;;5011404;28;20412;-51
2023/01/13 07:05:11;;;;;;;4.13;0.40;;;10.30;99.90;;;;;;5003580;28;20477;-52
2023/01/13 07:07:37;;;;;;;3.90;0.30;;;10.30;99.90;;;;;;5004025;28;20420;-51
2023/01/13 07:10:04;;;;;;;4.45;0.57;;;10.30;99.90;;;;;;5001442;28;20743;-51
2023/01/13 07:12:29;;;;;;;3.95;0.40;;;10.20;99.90;;;;;;4992453;28;20379;-51
2023/01/13 07:17:39;;;;;;;3.90;0.30;;;10.30;99.90;;;;;;5010806;28;20428;-51
2023/01/13 07:20:05;;;;;;;4.00;0.40;;;10.20;99.90;;;;;;5010504;28;20385;-51
2023/01/13 07:22:30;;;;;;;3.80;0.30;;;10.20;99.90;;;;;;5004269;28;20433;-51
2023/01/13 07:24:56;;;;;;;4.10;0.40;;;10.20;99.90;;;;;;4991604;28;20859;-51
2023/01/13 07:27:22;;;;;;;4.00;0.40;;;10.20;99.90;;;;;;4992172;28;20387;-51
2023/01/13 07:29:48;;;;;;;4.40;0.50;;;10.20;99.90;;;;;;4991729;28;20385;-56
2023/01/13 07:32:14;;;;;;;4.20;0.40;;;10.30;99.90;;;;;;4991932;28;20394;-51
2023/01/13 07:34:40;;;;;;;4.82;0.50;;;10.30;99.90;;;;;;4991721;28;20909;-51
2023/01/13 07:37:05;;;;;;;3.90;0.40;;;10.30;99.90;;;;;;4990686;28;20395;-51
2023/01/13 07:39:31;;;;;;;4.82;0.40;;;10.30;99.90;;;;;;4997904;28;20415;-50
2023/01/13 07:44:41;;;;;;;5.00;0.60;;;10.30;99.90;;;;;;5011203;28;21108;-51
2023/01/13 07:47:09;;;;;;;5.00;0.60;;;10.30;99.90;;;;;;5008310;28;20453;-53
2023/01/13 07:49:35;;;;;;;4.13;0.40;;;10.30;99.90;;;;;;5010693;28;20385;-51
2023/01/13 07:52:00;;;;;;;3.95;0.35;;;10.30;99.90;;;;;;5008897;28;20481;-51
2023/01/13 07:54:26;;;;;;;3.90;0.40;;;10.30;99.90;;;;;;5008285;28;20490;-51
2023/01/13 07:56:52;;;;;;;3.80;0.30;;;10.30;99.90;;;;;;5010433;28;20392;-51
2023/01/13 07:59:17;;;;;;;3.72;0.30;;;10.30;99.90;;;;;;5010919;28;20658;-51
2023/01/13 08:01:43;;;;;;;4.00;0.40;;;10.40;99.90;;;;;;5009372;28;20401;-52
2023/01/13 08:04:08;;;;;;;4.00;0.40;;;10.50;99.90;;;;;;5008538;28;20392;-51
2023/01/13 08:06:35;;;;;;;3.95;0.43;;;10.60;99.90;;;;;;5010235;28;20416;-51
2023/01/13 08:09:00;;;;;;;4.00;0.40;;;10.50;99.90;;;;;;5008395;28;20396;-51
2023/01/13 08:11:26;;;;;;;3.70;0.22;;;10.60;99.90;;;;;;5010345;28;20381;-51
2023/01/13 08:13:56;;;;;;;3.90;0.30;;;10.50;99.90;;;;;;5001242;28;20875;-53
2023/01/13 08:16:22;;;;;;;4.20;0.30;;;10.60;99.90;;;;;;4990831;28;20393;-51
2023/01/13 08:18:48;;;;;;;3.70;0.20;;;10.50;99.90;;;;;;4990647;28;20391;-56
2023/01/13 08:21:14;;;;;;;4.20;0.30;;;10.60;99.90;;;;;;4989932;28;20400;-51
2023/01/13 08:23:41;;;;;;;4.10;0.50;;;10.50;1.00;;;;;;4990064;28;20879;-52
2023/01/13 08:26:10;;;;;;;3.70;0.30;;;10.40;99.90;;;;;;4990052;28;20399;-51
2023/01/13 08:28:36;;;;;;;5.30;0.60;;;10.40;1.00;;;;;;4990832;28;20398;-51
2023/01/13 08:31:05;;;;;;;4.50;0.50;;;10.30;1.00;;;;;;4989742;28;20406;-51
2023/01/13 08:33:31;;;;;;;4.25;0.50;;;10.30;99.90;;;;;;4990298;28;20731;-51
2023/01/13 08:35:56;;;;;;;3.90;0.40;;;10.30;99.90;;;;;;4989383;28;20449;-50
2023/01/13 08:38:22;;;;;;;3.70;0.40;;;10.30;99.90;;;;;;4990069;28;20425;-51
2023/01/13 08:40:48;;;;;;;4.10;0.40;;;10.30;99.90;;;;;;4989901;28;20391;-56
2023/01/13 08:43:14;;;;;;;3.70;0.40;;;10.30;99.90;;;;;;4989947;28;20390;-51
2023/01/13 08:45:40;;;;;;;3.90;0.50;;;10.20;1.00;;;;;;4990099;28;20436;-51
2023/01/13 08:48:06;;;;;;;3.90;0.50;;;10.20;1.00;;;;;;4989387;28;20482;-51
2023/01/13 08:50:33;;;;;;;4.30;0.40;;;10.30;99.90;;;;;;4989901;28;20386;-52
2023/01/13 08:52:59;;;;;;;4.50;0.50;;;10.40;1.00;;;;;;4988735;28;20549;-52
2023/01/13 08:55:25;;;;;;;4.40;0.90;;;10.40;1.00;;;;;;4990226;28;20457;-51
2023/01/13 08:57:50;;;;;;;4.30;0.70;;;10.40;99.90;;;;;;4988915;28;20387;-56
2023/01/13 09:00:16;;;;;;;4.40;0.40;;;9.90;1.00;;;;;;4989464;28;20378;-51
2023/01/13 09:02:42;;;;;;;4.50;0.30;;;9.00;1.00;;;;;;4989788;28;20379;-51
2023/01/13 09:05:09;;;;;;;3.60;0.30;;;8.70;99.90;;;;;;4989069;28;20553;-51
2023/01/13 09:07:36;;;;;;;5.00;0.50;;;8.70;99.90;;;;;;4989572;28;20400;-52
2023/01/13 09:10:05;;;;;;;3.85;0.28;;;8.90;1.00;;;;;;4987723;28;20472;-51
2023/01/13 09:15:17;;;;;;;4.80;0.40;;;8.60;1.00;;;;;;5008299;28;20459;-51
2023/01/13 09:17:43;;;;;;;3.88;0.30;;;8.70;1.00;;;;;;5008992;28;20395;-52
2023/01/13 09:20:10;;;;;;;4.23;0.30;;;8.70;1.00;;;;;;5008768;28;20487;-50
2023/01/13 09:22:36;;;;;;;3.53;0.30;;;8.60;1.00;;;;;;5008765;28;20889;-51
2023/01/13 09:25:02;;;;;;;4.00;0.30;;;8.80;99.90;;;;;;5008233;28;20393;-51
2023/01/13 09:27:28;;;;;;;4.50;0.30;;;8.60;99.90;;;;;;5009139;28;20389;-52
2023/01/13 09:29:54;;;;;;;3.50;0.30;;;8.70;26.40;;;;;;5008371;28;20389;-51
2023/01/13 09:32:19;;;;;;;4.50;0.40;;;8.70;99.90;;;;;;5008577;28;20814;-50
2023/01/13 09:35:00;;;;;;;3.50;0.20;;;8.80;1.00;;;;;;5009061;28;20426;-50
2023/01/13 09:37:28;;;;;;;5.10;0.60;;;8.90;1.00;;;;;;5009056;28;20482;-51
2023/01/13 09:39:54;;;;;;;4.00;0.40;;;9.00;1.00;;;;;;5007965;28;20396;-51
2023/01/13 09:45:21;;;;;;;3.80;0.30;;;9.10;1.60;;;;;;5008220;28;20423;-53
2023/01/13 09:47:56;;;;;;;4.90;0.40;;;9.30;99.90;;;;;;5008651;28;20748;-53
2023/01/13 09:50:53;;;;;;;3.60;0.30;;;9.30;99.90;;;;;;5008996;28;20399;-50
2023/01/13 09:53:26;;;;;;;4.10;0.30;;;9.40;99.90;;;;;;5008304;28;20520;-51
2023/01/13 09:55:52;;;;;;;3.80;0.40;;;9.50;1.00;;;;;;5009050;28;20388;-55
2023/01/13 09:58:18;;;;;;;4.85;0.50;;;9.50;1.00;;;;;;5008481;28;20401;-51
2023/01/13 10:00:54;;;;;;;5.60;0.50;;;9.50;1.00;;;;;;5007298;28;20385;-51
2023/01/13 10:03:32;;;;;;;3.70;0.30;;;9.60;99.90;;;;;;5008724;28;20435;-54
2023/01/13 10:06:07;;;;;;;4.60;0.43;;;9.50;99.90;;;;;;5008397;28;20389;-51
2023/01/13 10:08:36;;;;;;;4.55;0.45;;;9.40;99.90;;;;;;5007295;28;20893;-51
2023/01/13 10:13:58;;;;;;;3.70;0.40;;;9.20;1.00;;;;;;5000497;28;20926;-55
2023/01/13 10:16:29;;;;;;;5.80;0.50;;;9.30;1.00;;;;;;4990587;28;20934;-51
2023/01/13 10:19:13;;;;;;;4.10;0.40;;;9.20;99.90;;;;;;4992499;28;20394;-51
2023/01/13 10:21:47;;;;;;;5.40;0.60;;;9.20;99.90;;;;;;4992998;28;20422;-51
2023/01/13 10:24:21;;;;;;;5.70;0.80;;;9.20;99.90;;;;;;4991797;28;21078;-51
2023/01/13 10:27:04;;;;;;;4.80;0.50;;;9.30;1.00;;;;;;4993026;28;20390;-51
2023/01/13 10:29:30;;;;;;;5.50;0.50;;;9.20;1.00;;;;;;4992900;28;20840;-50
2023/01/13 10:31:58;;;;;;;4.35;0.50;;;9.10;99.90;;;;;;4992341;28;20512;-50
2023/01/13 10:34:24;;;;;;;8.63;0.80;;;9.10;1.00;;;;;;4992971;28;20484;-51
2023/01/13 10:37:07;;;;;;;8.05;0.82;;;9.20;1.00;;;;;;4993045;28;20421;-55
2023/01/13 10:39:41;;;;;;;4.20;0.70;;;10.90;99.90;;;;;;4992789;28;20458;-50
2023/01/13 10:42:13;;;;;;;4.20;0.43;;;9.20;99.90;;;;;;4992215;28;20747;-51
2023/01/13 10:44:46;;;;;;;4.20;0.50;;;9.30;99.90;;;;;;4992840;28;20790;-51
2023/01/13 10:47:20;;;;;;;4.90;0.50;;;9.30;99.90;;;;;;4992578;28;20405;-50
2023/01/13 10:50:04;;;;;;;4.30;0.40;;;8.90;99.90;;;;;;4993434;28;20569;-50
2023/01/13 10:52:35;;;;;;;3.80;0.40;;;8.70;1.00;;;;;;4993297;28;20457;-51
2023/01/13 10:55:01;;;;;;;4.00;0.40;;;8.60;99.90;;;;;;4992496;28;20418;-50
2023/01/13 10:57:27;;;;;;;3.57;0.23;;;8.40;99.90;;;;;;4993409;28;20452;-51
2023/01/13 10:59:54;;;;;;;4.40;0.40;;;8.40;99.90;;;;;;4992757;28;20386;-56
2023/01/13 11:02:26;;;;;;;3.60;0.30;;;8.40;99.90;;;;;;4993278;28;20382;-51
2023/01/13 11:04:52;;;;;;;3.60;0.35;;;9.50;1.00;;;;;;4992932;28;20426;-55
2023/01/13 11:07:33;;;;;;;3.93;0.40;;;8.40;99.90;;;;;;4991404;28;20433;-50
2023/01/13 11:10:19;;;;;;;4.10;0.40;;;8.50;99.90;;;;;;4992669;28;20440;-51
2023/01/13 11:12:48;;;;;;;5.00;0.40;;;8.60;55.40;;;;;;4985569;28;20453;-51
2023/01/13 11:15:18;;;;;;;3.60;0.30;;;8.60;99.90;;;;;;5011151;28;21162;-52
2023/01/13 11:18:00;;;;;;;4.50;0.43;;;8.60;21.20;;;;;;5012888;28;20450;-53
2023/01/13 11:20:53;;;;;;;5.60;0.80;;;8.60;99.90;;;;;;5012448;28;20895;-51
2023/01/13 11:23:39;;;;;;;3.97;0.50;;;8.80;33.80;;;;;;5008619;28;20482;-51
2023/01/13 11:26:15;;;;;;;3.80;0.60;;;8.60;1.00;;;;;;5011276;28;20480;-51
2023/01/13 11:28:46;;;;;;;5.90;0.70;;;8.70;1.00;;;;;;5011361;28;20385;-51
2023/01/13 11:31:35;;;;;;;3.90;0.50;;;8.60;1.00;;;;;;5011324;28;20480;-51
2023/01/13 11:34:20;;;;;;;4.20;0.50;;;8.60;95.60;;;;;;5011458;28;20423;-53
2023/01/13 11:36:50;;;;;;;5.20;0.40;;;8.60;1.00;;;;;;5012383;28;20396;-51
2023/01/13 11:39:34;;;;;;;4.65;0.43;;;8.80;99.90;;;;;;5011776;28;20389;-51
2023/01/13 11:42:20;;;;;;;3.90;0.50;;;8.80;99.90;;;;;;5011533;28;20472;-51
2023/01/13 11:45:07;;;;;;;5.00;0.50;;;8.80;1.00;;;;;;5012590;28;20385;-51
2023/01/13 11:47:34;;;;;;;4.47;0.70;;;8.90;1.00;;;;;;5012358;28;20377;-51
2023/01/13 11:50:00;;;;;;;7.25;0.70;;;8.90;1.00;;;;;;5011271;28;20392;-51
2023/01/13 11:52:58;;;;;;;4.78;0.40;;;9.00;1.00;;;;;;5011927;28;20397;-51
2023/01/13 11:55:48;;;;;;;7.10;0.90;;;8.90;1.00;;;;;;5004720;28;20539;-51
2023/01/13 11:58:28;;;;;;;4.13;0.50;;;9.20;99.90;;;;;;5009490;28;20400;-51
2023/01/13 12:01:16;;;;;;;8.43;1.10;;;9.60;99.90;;;;;;5010181;28;20403;-56
2023/01/13 12:04:01;;;;;;;5.18;0.75;;;10.20;75.90;;;;;;5011497;28;20385;-51
2023/01/13 12:06:36;;;;;;;5.15;0.80;;;10.50;1.00;;;;;;5011817;28;20380;-51
2023/01/13 12:09:22;;;;;;;7.00;0.93;;;10.40;99.90;;;;;;5010632;28;20396;-51
2023/01/13 12:14:52;;;;;;;5.35;1.00;;;10.20;99.90;;;;;;5001962;28;20478;-52
2023/01/13 12:17:50;;;;;;;5.30;0.50;;;9.90;99.90;;;;;;5009845;28;20393;-51
2023/01/13 12:20:25;;;;;;;7.00;0.70;;;9.70;99.90;;;;;;5009117;28;20396;-53
2023/01/13 12:22:54;;;;;;;4.90;0.60;;;10.10;1.00;;;;;;5005346;28;20421;-51
2023/01/13 12:25:22;;;;;;;5.20;0.60;;;10.50;99.90;;;;;;5001739;28;20386;-51
2023/01/13 12:28:01;;;;;;;3.90;0.40;;;10.60;99.90;;;;;;5010912;28;20476;-51
2023/01/13 12:30:50;;;;;;;4.60;0.50;;;10.80;99.90;;;;;;5008894;28;20431;-51
2023/01/13 12:33:40;;;;;;;9.52;0.82;;;11.10;39.10;;;;;;5009840;28;20408;-51
2023/01/13 12:36:24;;;;;;;9.18;0.70;;;11.10;1.00;;;;;;5009505;28;20383;-51
2023/01/13 12:39:14;;;;;;;6.00;0.80;;;10.60;1.00;;;;;;5009823;28;20389;-52
2023/01/13 12:45:05;;;;;;;8.18;1.00;;;9.80;1.00;;;;;;4986222;28;20429;-55
2023/01/13 12:47:33;;;;;;;5.30;0.80;;;10.10;1.00;;;;;;5003936;28;20886;-51
2023/01/13 12:50:21;;;;;;;5.23;0.60;;;10.30;1.00;;;;;;4990657;28;20867;-51
2023/01/13 12:52:51;;;;;;;4.40;0.50;;;10.40;1.00;;;;;;4995321;28;20829;-50
2023/01/13 12:55:37;;;;;;;7.60;0.70;;;10.50;1.00;;;;;;4992722;28;20414;-51
2023/01/13 12:58:05;;;;;;;6.22;1.00;;;10.60;1.00;;;;;;4991188;28;20409;-51
2023/01/13 13:00:53;;;;;;;4.47;0.50;;;10.40;1.00;;;;;;5007377;28;20384;-51
2023/01/13 13:03:27;;;;;;;5.60;0.70;;;10.30;1.00;;;;;;5009680;28;20480;-54
2023/01/13 13:06:18;;;;;;;5.63;0.85;;;10.40;1.00;;;;;;5002053;28;20813;-56
2023/01/13 13:08:57;;;;;;;6.22;0.80;;;10.50;1.00;;;;;;4998441;28;20389;-53
2023/01/13 13:14:39;;;;;;;6.23;0.93;;;10.60;1.00;;;;;;5009428;28;20500;-52
2023/01/13 13:17:26;;;;;;;5.00;0.40;;;10.80;1.00;;;;;;5002922;28;20513;-52
2023/01/13 13:19:54;;;;;;;6.13;0.63;;;10.70;1.00;;;;;;5002223;28;20397;-56
2023/01/13 13:22:25;;;;;;;5.28;0.68;;;10.70;1.00;;;;;;5008734;28;20451;-51
2023/01/13 13:24:51;;;;;;;5.57;0.50;;;10.80;1.00;;;;;;5009179;28;20401;-50
2023/01/13 13:27:41;;;;;;;7.20;1.10;;;10.40;1.00;;;;;;5008406;28;20467;-50
2023/01/13 13:30:22;;;;;;;6.80;0.82;;;10.40;1.00;;;;;;5005245;28;20405;-51
2023/01/13 13:33:18;;;;;;;5.90;0.73;;;10.40;1.00;;;;;;5009406;28;20391;-50
2023/01/13 13:35:43;;;;;;;5.83;0.70;;;10.40;1.00;;;;;;5009404;28;20392;-50
2023/01/13 13:47:01;;;;;;;6.43;0.77;;;10.40;1.00;;;;;;5008123;28;20443;-52
2023/01/13 13:49:41;;;;;;;6.30;0.88;;;10.60;1.00;;;;;;5007894;28;20396;-51
2023/01/13 13:52:55;;;;;;;6.30;1.40;;;10.60;1.00;;;;;;4999340;28;20490;-51
2023/01/13 13:55:25;;;;;;;5.57;0.60;;;10.30;1.00;;;;;;4980169;28;20908;-51
2023/01/13 13:57:53;;;;;;;6.43;0.90;;;10.00;1.00;;;;;;5006495;28;20398;-51
2023/01/13 14:00:30;;;;;;;6.80;0.50;;;9.80;1.00;;;;;;5000321;28;20411;-49
2023/01/13 14:02:59;;;;;;;5.65;0.60;;;9.50;1.00;;;;;;4988602;28;20378;-56
2023/01/13 14:05:36;;;;;;;4.60;0.50;;;9.60;1.00;;;;;;4996477;28;20409;-52
2023/01/13 14:08:16;;;;;;;6.00;0.50;;;9.60;1.00;;;;;;4998710;28;20440;-51
2023/01/13 14:10:43;;;;;;;7.80;0.80;;;9.40;1.00;;;;;;4989159;28;20441;-51
2023/01/13 14:13:18;;;;;;;6.20;0.50;;;9.10;1.00;;;;;;4990544;28;20410;-51